sensor_id;sensor_type;location;lat;lon;timestamp;P1;durP1;ratioP1;P2;durP2;ratioP2
61962;SDS011;47927;42.646;23.096;2022-10-18T00:01:25;4.85;;;2.10;;
61962;SDS011;47927;42.646;23.096;2022-10-18T00:03:51;4.30;;;2.17;;
61962;SDS011;47927;42.646;23.096;2022-10-18T00:06:16;4.00;;;1.95;;
61962;SDS011;47927;42.646;23.096;2022-10-18T00:08:42;3.67;;;2.00;;
61962;SDS011;47927;42.646;23.096;2022-10-18T00:11:07;3.70;;;1.77;;
61962;SDS011;47927;42.646;23.096;2022-10-18T00:13:34;7.03;;;2.03;;
61962;SDS011;47927;42.646;23.096;2022-10-18T00:16:00;2.78;;;1.48;;
61962;SDS011;47927;42.646;23.096;2022-10-18T00:18:28;5.07;;;2.05;;
61962;SDS011;47927;42.646;23.096;2022-10-18T00:23:24;3.83;;;1.73;;
61962;SDS011;47927;42.646;23.096;2022-10-18T00:25:57;3.95;;;2.40;;
61962;SDS011;47927;42.646;23.096;2022-10-18T00:28:24;3.42;;;1.85;;
61962;SDS011;47927;42.646;23.096;2022-10-18T00:30:50;2.47;;;1.52;;
61962;SDS011;47927;42.646;23.096;2022-10-18T00:33:15;3.60;;;1.92;;
61962;SDS011;47927;42.646;23.096;2022-10-18T00:35:41;4.10;;;1.83;;
61962;SDS011;47927;42.646;23.096;2022-10-18T00:38:06;3.28;;;1.77;;
61962;SDS011;47927;42.646;23.096;2022-10-18T00:40:32;2.78;;;1.52;;
61962;SDS011;47927;42.646;23.096;2022-10-18T00:42:57;2.95;;;1.77;;
61962;SDS011;47927;42.646;23.096;2022-10-18T00:45:23;4.38;;;2.53;;
61962;SDS011;47927;42.646;23.096;2022-10-18T00:47:51;3.65;;;1.70;;
61962;SDS011;47927;42.646;23.096;2022-10-18T00:50:23;3.13;;;1.63;;
61962;SDS011;47927;42.646;23.096;2022-10-18T00:52:52;5.35;;;2.05;;
61962;SDS011;47927;42.646;23.096;2022-10-18T00:55:19;6.28;;;2.17;;
61962;SDS011;47927;42.646;23.096;2022-10-18T00:57:45;5.40;;;2.20;;
61962;SDS011;47927;42.646;23.096;2022-10-18T01:00:11;3.58;;;1.83;;
61962;SDS011;47927;42.646;23.096;2022-10-18T01:02:39;4.00;;;1.98;;
61962;SDS011;47927;42.646;23.096;2022-10-18T01:05:07;4.15;;;2.00;;
61962;SDS011;47927;42.646;23.096;2022-10-18T01:12:57;4.93;;;2.17;;
61962;SDS011;47927;42.646;23.096;2022-10-18T01:18:24;3.45;;;1.73;;
61962;SDS011;47927;42.646;23.096;2022-10-18T01:29:11;4.57;;;2.15;;
61962;SDS011;47927;42.646;23.096;2022-10-18T01:31:48;5.78;;;2.10;;
61962;SDS011;47927;42.646;23.096;2022-10-18T01:34:21;4.45;;;2.72;;
61962;SDS011;47927;42.646;23.096;2022-10-18T01:36:51;6.18;;;2.33;;
61962;SDS011;47927;42.646;23.096;2022-10-18T01:39:20;3.85;;;1.98;;
61962;SDS011;47927;42.646;23.096;2022-10-18T01:41:50;5.90;;;2.17;;
61962;SDS011;47927;42.646;23.096;2022-10-18T01:44:19;5.38;;;2.25;;
61962;SDS011;47927;42.646;23.096;2022-10-18T01:46:48;4.60;;;2.25;;
61962;SDS011;47927;42.646;23.096;2022-10-18T01:49:16;4.20;;;2.08;;
61962;SDS011;47927;42.646;23.096;2022-10-18T01:51:41;4.90;;;2.55;;
61962;SDS011;47927;42.646;23.096;2022-10-18T01:54:07;4.38;;;1.80;;
61962;SDS011;47927;42.646;23.096;2022-10-18T01:56:55;6.82;;;2.45;;
61962;SDS011;47927;42.646;23.096;2022-10-18T01:59:46;5.95;;;2.38;;
61962;SDS011;47927;42.646;23.096;2022-10-18T02:05:29;5.13;;;1.98;;
61962;SDS011;47927;42.646;23.096;2022-10-18T02:13:30;4.80;;;2.10;;
61962;SDS011;47927;42.646;23.096;2022-10-18T02:16:10;5.85;;;2.40;;
61962;SDS011;47927;42.646;23.096;2022-10-18T02:18:43;6.45;;;2.58;;
61962;SDS011;47927;42.646;23.096;2022-10-18T02:21:14;9.00;;;2.45;;
61962;SDS011;47927;42.646;23.096;2022-10-18T02:23:44;4.32;;;2.40;;
61962;SDS011;47927;42.646;23.096;2022-10-18T02:26:11;6.82;;;2.58;;
61962;SDS011;47927;42.646;23.096;2022-10-18T02:28:38;6.35;;;2.50;;
61962;SDS011;47927;42.646;23.096;2022-10-18T02:36:33;4.63;;;2.58;;
61962;SDS011;47927;42.646;23.096;2022-10-18T02:39:07;7.13;;;2.60;;
61962;SDS011;47927;42.646;23.096;2022-10-18T02:41:41;8.55;;;2.55;;
61962;SDS011;47927;42.646;23.096;2022-10-18T02:44:08;10.93;;;3.20;;
61962;SDS011;47927;42.646;23.096;2022-10-18T02:46:34;9.60;;;2.67;;
61962;SDS011;47927;42.646;23.096;2022-10-18T02:49:01;7.70;;;3.42;;
61962;SDS011;47927;42.646;23.096;2022-10-18T02:51:26;5.90;;;2.45;;
61962;SDS011;47927;42.646;23.096;2022-10-18T02:53:52;6.53;;;2.50;;
61962;SDS011;47927;42.646;23.096;2022-10-18T02:56:17;6.07;;;2.13;;
61962;SDS011;47927;42.646;23.096;2022-10-18T02:58:43;5.30;;;2.58;;
61962;SDS011;47927;42.646;23.096;2022-10-18T03:01:08;5.38;;;2.83;;
61962;SDS011;47927;42.646;23.096;2022-10-18T03:03:34;8.48;;;2.95;;
61962;SDS011;47927;42.646;23.096;2022-10-18T03:05:59;8.00;;;3.08;;
61962;SDS011;47927;42.646;23.096;2022-10-18T03:08:25;9.00;;;2.47;;
61962;SDS011;47927;42.646;23.096;2022-10-18T03:10:50;4.55;;;2.40;;
61962;SDS011;47927;42.646;23.096;2022-10-18T03:13:16;6.68;;;2.78;;
61962;SDS011;47927;42.646;23.096;2022-10-18T03:15:42;5.47;;;2.13;;
61962;SDS011;47927;42.646;23.096;2022-10-18T03:18:07;4.32;;;2.25;;
61962;SDS011;47927;42.646;23.096;2022-10-18T03:20:33;5.68;;;2.40;;
61962;SDS011;47927;42.646;23.096;2022-10-18T03:22:59;5.00;;;2.70;;
61962;SDS011;47927;42.646;23.096;2022-10-18T03:25:24;5.43;;;2.22;;
61962;SDS011;47927;42.646;23.096;2022-10-18T03:27:50;6.88;;;2.47;;
61962;SDS011;47927;42.646;23.096;2022-10-18T03:30:15;5.78;;;1.90;;
61962;SDS011;47927;42.646;23.096;2022-10-18T03:32:41;4.45;;;2.13;;
61962;SDS011;47927;42.646;23.096;2022-10-18T03:35:07;4.68;;;2.50;;
61962;SDS011;47927;42.646;23.096;2022-10-18T03:37:36;16.92;;;2.55;;
61962;SDS011;47927;42.646;23.096;2022-10-18T03:40:02;4.90;;;2.00;;
61962;SDS011;47927;42.646;23.096;2022-10-18T03:42:28;6.68;;;2.70;;
61962;SDS011;47927;42.646;23.096;2022-10-18T03:44:54;5.60;;;2.22;;
61962;SDS011;47927;42.646;23.096;2022-10-18T03:47:20;4.95;;;2.08;;
61962;SDS011;47927;42.646;23.096;2022-10-18T03:49:45;5.57;;;2.85;;
61962;SDS011;47927;42.646;23.096;2022-10-18T03:52:11;5.40;;;2.40;;
61962;SDS011;47927;42.646;23.096;2022-10-18T03:54:36;3.20;;;1.73;;
61962;SDS011;47927;42.646;23.096;2022-10-18T03:57:02;5.50;;;2.30;;
61962;SDS011;47927;42.646;23.096;2022-10-18T03:59:27;4.35;;;2.33;;
61962;SDS011;47927;42.646;23.096;2022-10-18T04:01:53;5.72;;;2.10;;
61962;SDS011;47927;42.646;23.096;2022-10-18T04:04:18;6.03;;;2.55;;
61962;SDS011;47927;42.646;23.096;2022-10-18T04:06:44;9.90;;;2.40;;
61962;SDS011;47927;42.646;23.096;2022-10-18T04:09:10;7.85;;;2.47;;
61962;SDS011;47927;42.646;23.096;2022-10-18T04:11:36;4.40;;;2.17;;
61962;SDS011;47927;42.646;23.096;2022-10-18T04:14:01;4.75;;;2.13;;
61962;SDS011;47927;42.646;23.096;2022-10-18T04:16:27;7.10;;;2.25;;
61962;SDS011;47927;42.646;23.096;2022-10-18T04:18:53;6.35;;;2.28;;
61962;SDS011;47927;42.646;23.096;2022-10-18T04:21:18;3.70;;;2.15;;
61962;SDS011;47927;42.646;23.096;2022-10-18T04:23:47;3.63;;;2.00;;
61962;SDS011;47927;42.646;23.096;2022-10-18T04:26:14;6.38;;;2.25;;
61962;SDS011;47927;42.646;23.096;2022-10-18T04:28:41;19.33;;;4.90;;
61962;SDS011;47927;42.646;23.096;2022-10-18T04:31:07;5.53;;;2.60;;
61962;SDS011;47927;42.646;23.096;2022-10-18T04:33:33;3.30;;;2.00;;
61962;SDS011;47927;42.646;23.096;2022-10-18T04:35:59;4.82;;;2.17;;
61962;SDS011;47927;42.646;23.096;2022-10-18T04:38:24;12.50;;;2.13;;
61962;SDS011;47927;42.646;23.096;2022-10-18T04:40:50;14.27;;;2.92;;
61962;SDS011;47927;42.646;23.096;2022-10-18T04:43:15;4.72;;;2.25;;
61962;SDS011;47927;42.646;23.096;2022-10-18T04:45:43;4.97;;;2.05;;
61962;SDS011;47927;42.646;23.096;2022-10-18T04:48:10;5.50;;;2.70;;
61962;SDS011;47927;42.646;23.096;2022-10-18T04:50:35;4.13;;;2.40;;
61962;SDS011;47927;42.646;23.096;2022-10-18T04:53:12;7.38;;;2.75;;
61962;SDS011;47927;42.646;23.096;2022-10-18T04:55:37;4.82;;;2.45;;
61962;SDS011;47927;42.646;23.096;2022-10-18T04:58:03;7.68;;;2.67;;
61962;SDS011;47927;42.646;23.096;2022-10-18T05:00:28;5.63;;;2.35;;
61962;SDS011;47927;42.646;23.096;2022-10-18T05:02:57;9.48;;;2.53;;
61962;SDS011;47927;42.646;23.096;2022-10-18T05:05:22;5.20;;;2.13;;
61962;SDS011;47927;42.646;23.096;2022-10-18T05:07:48;4.57;;;2.45;;
61962;SDS011;47927;42.646;23.096;2022-10-18T05:10:13;4.28;;;2.28;;
61962;SDS011;47927;42.646;23.096;2022-10-18T05:12:39;4.97;;;2.58;;
61962;SDS011;47927;42.646;23.096;2022-10-18T05:15:05;6.28;;;2.70;;
61962;SDS011;47927;42.646;23.096;2022-10-18T05:17:30;4.00;;;2.40;;
61962;SDS011;47927;42.646;23.096;2022-10-18T05:19:56;4.53;;;2.42;;
61962;SDS011;47927;42.646;23.096;2022-10-18T05:22:21;7.30;;;3.42;;
61962;SDS011;47927;42.646;23.096;2022-10-18T05:24:47;4.93;;;3.05;;
61962;SDS011;47927;42.646;23.096;2022-10-18T05:27:12;5.15;;;3.03;;
61962;SDS011;47927;42.646;23.096;2022-10-18T05:29:38;6.88;;;3.38;;
61962;SDS011;47927;42.646;23.096;2022-10-18T05:32:03;8.05;;;3.55;;
61962;SDS011;47927;42.646;23.096;2022-10-18T05:34:29;6.32;;;3.40;;
61962;SDS011;47927;42.646;23.096;2022-10-18T05:36:56;6.25;;;3.33;;
61962;SDS011;47927;42.646;23.096;2022-10-18T05:39:22;5.50;;;3.45;;
61962;SDS011;47927;42.646;23.096;2022-10-18T05:41:48;6.85;;;3.22;;
61962;SDS011;47927;42.646;23.096;2022-10-18T05:44:13;7.15;;;4.85;;
61962;SDS011;47927;42.646;23.096;2022-10-18T05:46:39;5.20;;;3.40;;
61962;SDS011;47927;42.646;23.096;2022-10-18T05:49:04;6.20;;;3.55;;
61962;SDS011;47927;42.646;23.096;2022-10-18T05:51:30;8.32;;;3.80;;
61962;SDS011;47927;42.646;23.096;2022-10-18T05:53:56;7.97;;;3.35;;
61962;SDS011;47927;42.646;23.096;2022-10-18T05:56:22;10.60;;;4.97;;
61962;SDS011;47927;42.646;23.096;2022-10-18T05:58:49;15.63;;;3.50;;
61962;SDS011;47927;42.646;23.096;2022-10-18T06:01:15;13.30;;;4.07;;
61962;SDS011;47927;42.646;23.096;2022-10-18T06:03:42;10.32;;;5.25;;
61962;SDS011;47927;42.646;23.096;2022-10-18T06:06:08;15.73;;;8.57;;
61962;SDS011;47927;42.646;23.096;2022-10-18T06:08:35;14.50;;;9.95;;
61962;SDS011;47927;42.646;23.096;2022-10-18T06:11:12;11.38;;;6.35;;
61962;SDS011;47927;42.646;23.096;2022-10-18T06:13:43;14.88;;;5.63;;
61962;SDS011;47927;42.646;23.096;2022-10-18T06:16:10;8.50;;;5.45;;
61962;SDS011;47927;42.646;23.096;2022-10-18T06:18:37;8.35;;;4.50;;
61962;SDS011;47927;42.646;23.096;2022-10-18T06:21:02;12.93;;;5.35;;
61962;SDS011;47927;42.646;23.096;2022-10-18T06:23:28;9.55;;;5.75;;
61962;SDS011;47927;42.646;23.096;2022-10-18T06:26:01;15.98;;;6.18;;
61962;SDS011;47927;42.646;23.096;2022-10-18T06:28:29;12.20;;;5.30;;
61962;SDS011;47927;42.646;23.096;2022-10-18T06:30:55;13.43;;;5.35;;
61962;SDS011;47927;42.646;23.096;2022-10-18T06:33:22;11.27;;;4.88;;
61962;SDS011;47927;42.646;23.096;2022-10-18T06:35:57;8.82;;;4.18;;
61962;SDS011;47927;42.646;23.096;2022-10-18T06:38:24;8.07;;;4.70;;
61962;SDS011;47927;42.646;23.096;2022-10-18T06:40:51;8.98;;;5.10;;
61962;SDS011;47927;42.646;23.096;2022-10-18T06:43:16;9.15;;;4.50;;
61962;SDS011;47927;42.646;23.096;2022-10-18T06:45:42;8.80;;;5.10;;
61962;SDS011;47927;42.646;23.096;2022-10-18T06:48:08;8.82;;;5.20;;
61962;SDS011;47927;42.646;23.096;2022-10-18T06:50:33;10.60;;;5.22;;
61962;SDS011;47927;42.646;23.096;2022-10-18T06:52:59;13.55;;;5.13;;
61962;SDS011;47927;42.646;23.096;2022-10-18T06:55:25;8.40;;;5.00;;
61962;SDS011;47927;42.646;23.096;2022-10-18T06:57:51;9.65;;;5.43;;
61962;SDS011;47927;42.646;23.096;2022-10-18T07:00:17;8.55;;;5.28;;
61962;SDS011;47927;42.646;23.096;2022-10-18T07:02:43;7.75;;;4.50;;
61962;SDS011;47927;42.646;23.096;2022-10-18T07:05:09;9.18;;;5.50;;
61962;SDS011;47927;42.646;23.096;2022-10-18T07:07:36;12.55;;;6.22;;
61962;SDS011;47927;42.646;23.096;2022-10-18T07:10:02;10.38;;;6.13;;
61962;SDS011;47927;42.646;23.096;2022-10-18T07:12:29;9.25;;;4.97;;
61962;SDS011;47927;42.646;23.096;2022-10-18T07:14:55;7.88;;;4.75;;
61962;SDS011;47927;42.646;23.096;2022-10-18T07:17:21;8.48;;;5.35;;
61962;SDS011;47927;42.646;23.096;2022-10-18T07:19:46;11.23;;;5.30;;
61962;SDS011;47927;42.646;23.096;2022-10-18T07:22:12;9.63;;;5.30;;
61962;SDS011;47927;42.646;23.096;2022-10-18T07:24:37;11.60;;;6.20;;
61962;SDS011;47927;42.646;23.096;2022-10-18T07:27:03;7.80;;;4.47;;
61962;SDS011;47927;42.646;23.096;2022-10-18T07:29:29;9.05;;;4.88;;
61962;SDS011;47927;42.646;23.096;2022-10-18T07:31:55;6.82;;;4.32;;
61962;SDS011;47927;42.646;23.096;2022-10-18T07:34:20;8.00;;;4.60;;
61962;SDS011;47927;42.646;23.096;2022-10-18T07:36:46;9.38;;;5.28;;
61962;SDS011;47927;42.646;23.096;2022-10-18T07:39:11;9.95;;;5.10;;
61962;SDS011;47927;42.646;23.096;2022-10-18T07:41:37;10.80;;;4.78;;
61962;SDS011;47927;42.646;23.096;2022-10-18T07:44:03;7.93;;;4.95;;
61962;SDS011;47927;42.646;23.096;2022-10-18T07:46:29;12.45;;;5.00;;
61962;SDS011;47927;42.646;23.096;2022-10-18T07:48:55;11.38;;;5.30;;
61962;SDS011;47927;42.646;23.096;2022-10-18T07:51:22;14.25;;;5.75;;
61962;SDS011;47927;42.646;23.096;2022-10-18T07:53:48;15.52;;;5.82;;
61962;SDS011;47927;42.646;23.096;2022-10-18T07:56:14;15.65;;;6.03;;
61962;SDS011;47927;42.646;23.096;2022-10-18T07:58:42;16.33;;;7.13;;
61962;SDS011;47927;42.646;23.096;2022-10-18T08:01:08;20.55;;;6.95;;
61962;SDS011;47927;42.646;23.096;2022-10-18T08:03:34;20.48;;;6.97;;
61962;SDS011;47927;42.646;23.096;2022-10-18T08:06:01;19.02;;;6.50;;
61962;SDS011;47927;42.646;23.096;2022-10-18T08:08:28;18.67;;;6.40;;
61962;SDS011;47927;42.646;23.096;2022-10-18T08:10:54;15.25;;;5.97;;
61962;SDS011;47927;42.646;23.096;2022-10-18T08:13:19;21.85;;;6.38;;
61962;SDS011;47927;42.646;23.096;2022-10-18T08:15:45;23.38;;;6.45;;
61962;SDS011;47927;42.646;23.096;2022-10-18T08:18:11;17.80;;;5.88;;
61962;SDS011;47927;42.646;23.096;2022-10-18T08:20:41;23.00;;;7.25;;
61962;SDS011;47927;42.646;23.096;2022-10-18T08:23:08;22.42;;;6.47;;
61962;SDS011;47927;42.646;23.096;2022-10-18T08:25:33;16.63;;;5.90;;
61962;SDS011;47927;42.646;23.096;2022-10-18T08:27:59;21.15;;;6.10;;
61962;SDS011;47927;42.646;23.096;2022-10-18T08:30:26;15.38;;;5.50;;
61962;SDS011;47927;42.646;23.096;2022-10-18T08:32:52;25.20;;;10.27;;
61962;SDS011;47927;42.646;23.096;2022-10-18T08:35:17;24.65;;;6.20;;
61962;SDS011;47927;42.646;23.096;2022-10-18T08:37:43;28.08;;;8.80;;
61962;SDS011;47927;42.646;23.096;2022-10-18T08:40:11;27.52;;;8.40;;
61962;SDS011;47927;42.646;23.096;2022-10-18T08:45:22;11.00;;;4.25;;
61962;SDS011;47927;42.646;23.096;2022-10-18T08:47:49;17.05;;;5.28;;
61962;SDS011;47927;42.646;23.096;2022-10-18T08:50:22;27.88;;;12.88;;
61962;SDS011;47927;42.646;23.096;2022-10-18T08:57:45;11.32;;;4.82;;
61962;SDS011;47927;42.646;23.096;2022-10-18T09:00:16;13.43;;;5.32;;
61962;SDS011;47927;42.646;23.096;2022-10-18T09:02:59;18.10;;;7.03;;
61962;SDS011;47927;42.646;23.096;2022-10-18T09:06:02;11.82;;;5.47;;
61962;SDS011;47927;42.646;23.096;2022-10-18T09:25:19;16.30;;;3.80;;
61962;SDS011;47927;42.646;23.096;2022-10-18T09:27:51;11.48;;;5.05;;
61962;SDS011;47927;42.646;23.096;2022-10-18T09:30:22;11.27;;;6.35;;
61962;SDS011;47927;42.646;23.096;2022-10-18T09:36:21;13.65;;;4.32;;
61962;SDS011;47927;42.646;23.096;2022-10-18T09:38:52;11.93;;;3.50;;
61962;SDS011;47927;42.646;23.096;2022-10-18T09:44:24;7.95;;;2.67;;
61962;SDS011;47927;42.646;23.096;2022-10-18T09:46:57;12.35;;;3.70;;
61962;SDS011;47927;42.646;23.096;2022-10-18T09:49:37;7.97;;;3.35;;
61962;SDS011;47927;42.646;23.096;2022-10-18T09:52:08;6.95;;;2.72;;
61962;SDS011;47927;42.646;23.096;2022-10-18T09:54:43;6.55;;;3.10;;
61962;SDS011;47927;42.646;23.096;2022-10-18T09:57:18;9.43;;;2.90;;
61962;SDS011;47927;42.646;23.096;2022-10-18T09:59:46;8.63;;;2.83;;
61962;SDS011;47927;42.646;23.096;2022-10-18T10:02:15;6.88;;;2.72;;
61962;SDS011;47927;42.646;23.096;2022-10-18T10:04:42;5.72;;;2.25;;
61962;SDS011;47927;42.646;23.096;2022-10-18T10:07:08;7.22;;;2.72;;
61962;SDS011;47927;42.646;23.096;2022-10-18T10:09:40;4.43;;;2.40;;
61962;SDS011;47927;42.646;23.096;2022-10-18T10:12:26;5.78;;;2.60;;
61962;SDS011;47927;42.646;23.096;2022-10-18T10:17:44;6.22;;;2.70;;
61962;SDS011;47927;42.646;23.096;2022-10-18T10:20:23;6.15;;;2.42;;
61962;SDS011;47927;42.646;23.096;2022-10-18T10:22:52;6.75;;;2.30;;
61962;SDS011;47927;42.646;23.096;2022-10-18T10:28:00;5.35;;;2.40;;
61962;SDS011;47927;42.646;23.096;2022-10-18T10:30:35;4.53;;;2.22;;
61962;SDS011;47927;42.646;23.096;2022-10-18T10:33:02;4.45;;;2.53;;
61962;SDS011;47927;42.646;23.096;2022-10-18T10:38:02;6.85;;;2.90;;
61962;SDS011;47927;42.646;23.096;2022-10-18T10:40:29;7.75;;;2.40;;
61962;SDS011;47927;42.646;23.096;2022-10-18T10:45:28;7.60;;;2.20;;
61962;SDS011;47927;42.646;23.096;2022-10-18T10:48:05;5.00;;;2.30;;
61962;SDS011;47927;42.646;23.096;2022-10-18T10:50:48;4.50;;;2.40;;
61962;SDS011;47927;42.646;23.096;2022-10-18T10:56:22;3.97;;;2.10;;
61962;SDS011;47927;42.646;23.096;2022-10-18T10:58:51;2.80;;;1.63;;
61962;SDS011;47927;42.646;23.096;2022-10-18T11:01:19;4.15;;;2.20;;
61962;SDS011;47927;42.646;23.096;2022-10-18T11:08:59;3.50;;;1.70;;
61962;SDS011;47927;42.646;23.096;2022-10-18T11:11:33;3.03;;;1.73;;
61962;SDS011;47927;42.646;23.096;2022-10-18T11:14:08;4.45;;;1.70;;
61962;SDS011;47927;42.646;23.096;2022-10-18T11:17:30;4.55;;;1.70;;
61962;SDS011;47927;42.646;23.096;2022-10-18T11:22:20;8.45;;;1.52;;
61962;SDS011;47927;42.646;23.096;2022-10-18T11:24:49;6.88;;;2.00;;
61962;SDS011;47927;42.646;23.096;2022-10-18T11:27:22;3.28;;;1.63;;
61962;SDS011;47927;42.646;23.096;2022-10-18T11:33:04;3.15;;;1.50;;
61962;SDS011;47927;42.646;23.096;2022-10-18T11:35:55;3.55;;;1.80;;
61962;SDS011;47927;42.646;23.096;2022-10-18T11:38:33;3.53;;;1.58;;
61962;SDS011;47927;42.646;23.096;2022-10-18T11:43:57;4.90;;;1.50;;
61962;SDS011;47927;42.646;23.096;2022-10-18T11:46:32;3.75;;;1.58;;
61962;SDS011;47927;42.646;23.096;2022-10-18T12:00:22;5.35;;;2.53;;
61962;SDS011;47927;42.646;23.096;2022-10-18T12:05:52;8.82;;;4.80;;
61962;SDS011;47927;42.646;23.096;2022-10-18T12:10:54;14.70;;;5.10;;
61962;SDS011;47927;42.646;23.096;2022-10-18T12:13:31;10.98;;;5.00;;
61962;SDS011;47927;42.646;23.096;2022-10-18T12:16:20;12.75;;;5.22;;
61962;SDS011;47927;42.646;23.096;2022-10-18T12:18:58;10.90;;;4.93;;
61962;SDS011;47927;42.646;23.096;2022-10-18T12:21:28;10.45;;;4.05;;
61962;SDS011;47927;42.646;23.096;2022-10-18T12:23:57;11.23;;;4.20;;
61962;SDS011;47927;42.646;23.096;2022-10-18T12:26:26;9.50;;;4.38;;
61962;SDS011;47927;42.646;23.096;2022-10-18T12:34:13;9.32;;;4.97;;
61962;SDS011;47927;42.646;23.096;2022-10-18T12:39:26;6.07;;;3.35;;
61962;SDS011;47927;42.646;23.096;2022-10-18T12:41:57;7.43;;;3.50;;
61962;SDS011;47927;42.646;23.096;2022-10-18T12:44:30;7.28;;;3.10;;
61962;SDS011;47927;42.646;23.096;2022-10-18T12:46:57;9.68;;;3.15;;
61962;SDS011;47927;42.646;23.096;2022-10-18T12:49:29;5.50;;;3.10;;
61962;SDS011;47927;42.646;23.096;2022-10-18T12:51:58;6.95;;;2.83;;
61962;SDS011;47927;42.646;23.096;2022-10-18T12:54:27;10.63;;;3.78;;
61962;SDS011;47927;42.646;23.096;2022-10-18T12:56:55;8.53;;;3.23;;
61962;SDS011;47927;42.646;23.096;2022-10-18T13:04:35;5.20;;;2.70;;
61962;SDS011;47927;42.646;23.096;2022-10-18T13:18:13;8.10;;;3.40;;
61962;SDS011;47927;42.646;23.096;2022-10-18T13:23:35;5.03;;;2.42;;
61962;SDS011;47927;42.646;23.096;2022-10-18T13:26:09;5.68;;;2.28;;
61962;SDS011;47927;42.646;23.096;2022-10-18T13:28:55;5.13;;;3.20;;
61962;SDS011;47927;42.646;23.096;2022-10-18T13:34:27;4.57;;;2.30;;
61962;SDS011;47927;42.646;23.096;2022-10-18T13:36:59;4.63;;;2.53;;
61962;SDS011;47927;42.646;23.096;2022-10-18T13:39:26;6.32;;;2.20;;
61962;SDS011;47927;42.646;23.096;2022-10-18T14:05:33;5.93;;;1.65;;
61962;SDS011;47927;42.646;23.096;2022-10-18T14:08:16;5.93;;;2.03;;
61962;SDS011;47927;42.646;23.096;2022-10-18T14:14:01;4.53;;;1.90;;
61962;SDS011;47927;42.646;23.096;2022-10-18T14:19:03;2.85;;;1.48;;
61962;SDS011;47927;42.646;23.096;2022-10-18T14:21:52;4.60;;;1.35;;
61962;SDS011;47927;42.646;23.096;2022-10-18T14:24:23;9.48;;;2.38;;
61962;SDS011;47927;42.646;23.096;2022-10-18T14:27:10;5.97;;;1.70;;
61962;SDS011;47927;42.646;23.096;2022-10-18T14:29:37;3.67;;;1.40;;
61962;SDS011;47927;42.646;23.096;2022-10-18T14:32:06;2.92;;;1.63;;
61962;SDS011;47927;42.646;23.096;2022-10-18T14:34:33;3.95;;;1.10;;
61962;SDS011;47927;42.646;23.096;2022-10-18T14:36:59;2.30;;;1.40;;
61962;SDS011;47927;42.646;23.096;2022-10-18T14:39:25;3.17;;;1.40;;
61962;SDS011;47927;42.646;23.096;2022-10-18T14:41:54;6.13;;;1.35;;
61962;SDS011;47927;42.646;23.096;2022-10-18T14:44:25;3.50;;;1.40;;
61962;SDS011;47927;42.646;23.096;2022-10-18T14:47:00;4.10;;;1.45;;
61962;SDS011;47927;42.646;23.096;2022-10-18T14:49:27;2.35;;;1.20;;
61962;SDS011;47927;42.646;23.096;2022-10-18T14:51:54;5.50;;;1.30;;
61962;SDS011;47927;42.646;23.096;2022-10-18T14:54:23;3.38;;;1.10;;
61962;SDS011;47927;42.646;23.096;2022-10-18T14:56:53;2.00;;;1.00;;
61962;SDS011;47927;42.646;23.096;2022-10-18T14:59:21;2.22;;;1.10;;
61962;SDS011;47927;42.646;23.096;2022-10-18T15:01:50;6.80;;;1.42;;
61962;SDS011;47927;42.646;23.096;2022-10-18T15:04:22;2.80;;;1.27;;
61962;SDS011;47927;42.646;23.096;2022-10-18T15:06:55;6.13;;;1.30;;
61962;SDS011;47927;42.646;23.096;2022-10-18T15:09:21;2.90;;;1.40;;
61962;SDS011;47927;42.646;23.096;2022-10-18T15:11:48;7.35;;;1.50;;
61962;SDS011;47927;42.646;23.096;2022-10-18T15:14:17;3.53;;;1.27;;
61962;SDS011;47927;42.646;23.096;2022-10-18T15:16:44;3.40;;;1.20;;
61962;SDS011;47927;42.646;23.096;2022-10-18T15:21:53;3.75;;;1.52;;
61962;SDS011;47927;42.646;23.096;2022-10-18T15:26:53;6.28;;;1.90;;
61962;SDS011;47927;42.646;23.096;2022-10-18T15:29:20;6.40;;;1.70;;
61962;SDS011;47927;42.646;23.096;2022-10-18T15:31:47;4.28;;;2.05;;
61962;SDS011;47927;42.646;23.096;2022-10-18T15:34:25;6.40;;;3.53;;
61962;SDS011;47927;42.646;23.096;2022-10-18T15:36:51;5.82;;;2.75;;
61962;SDS011;47927;42.646;23.096;2022-10-18T15:39:20;7.50;;;2.97;;
61962;SDS011;47927;42.646;23.096;2022-10-18T15:41:48;12.40;;;6.80;;
61962;SDS011;47927;42.646;23.096;2022-10-18T15:46:46;9.52;;;2.30;;
61962;SDS011;47927;42.646;23.096;2022-10-18T15:54:34;8.32;;;4.15;;
61962;SDS011;47927;42.646;23.096;2022-10-18T15:57:05;5.45;;;2.35;;
61962;SDS011;47927;42.646;23.096;2022-10-18T15:59:33;4.60;;;2.05;;
61962;SDS011;47927;42.646;23.096;2022-10-18T16:01:58;2.97;;;1.30;;
61962;SDS011;47927;42.646;23.096;2022-10-18T16:04:25;4.50;;;1.58;;
61962;SDS011;47927;42.646;23.096;2022-10-18T16:06:53;2.88;;;1.50;;
61962;SDS011;47927;42.646;23.096;2022-10-18T16:09:20;2.90;;;1.50;;
61962;SDS011;47927;42.646;23.096;2022-10-18T16:11:48;2.75;;;1.48;;
61962;SDS011;47927;42.646;23.096;2022-10-18T16:14:15;6.75;;;2.97;;
61962;SDS011;47927;42.646;23.096;2022-10-18T16:16:45;3.13;;;1.63;;
61962;SDS011;47927;42.646;23.096;2022-10-18T16:19:15;2.45;;;1.27;;
61962;SDS011;47927;42.646;23.096;2022-10-18T16:21:46;4.82;;;1.67;;
61962;SDS011;47927;42.646;23.096;2022-10-18T16:24:13;3.78;;;1.92;;
61962;SDS011;47927;42.646;23.096;2022-10-18T16:26:39;8.80;;;2.22;;
61962;SDS011;47927;42.646;23.096;2022-10-18T16:29:05;3.75;;;1.90;;
61962;SDS011;47927;42.646;23.096;2022-10-18T16:31:32;5.65;;;1.88;;
61962;SDS011;47927;42.646;23.096;2022-10-18T16:33:59;5.88;;;2.35;;
61962;SDS011;47927;42.646;23.096;2022-10-18T16:36:27;6.95;;;2.47;;
61962;SDS011;47927;42.646;23.096;2022-10-18T16:38:54;3.25;;;1.88;;
61962;SDS011;47927;42.646;23.096;2022-10-18T16:41:21;6.45;;;1.75;;
61962;SDS011;47927;42.646;23.096;2022-10-18T16:43:48;3.28;;;1.55;;
61962;SDS011;47927;42.646;23.096;2022-10-18T16:46:26;5.75;;;1.83;;
61962;SDS011;47927;42.646;23.096;2022-10-18T16:48:53;4.70;;;1.85;;
61962;SDS011;47927;42.646;23.096;2022-10-18T16:51:20;3.88;;;2.10;;
61962;SDS011;47927;42.646;23.096;2022-10-18T16:53:46;7.60;;;2.28;;
61962;SDS011;47927;42.646;23.096;2022-10-18T16:56:13;5.00;;;2.00;;
61962;SDS011;47927;42.646;23.096;2022-10-18T16:58:41;6.28;;;2.15;;
61962;SDS011;47927;42.646;23.096;2022-10-18T17:01:09;5.47;;;2.47;;
61962;SDS011;47927;42.646;23.096;2022-10-18T17:03:38;7.45;;;2.92;;
61962;SDS011;47927;42.646;23.096;2022-10-18T17:06:03;4.20;;;2.03;;
61962;SDS011;47927;42.646;23.096;2022-10-18T17:08:29;8.70;;;2.13;;
61962;SDS011;47927;42.646;23.096;2022-10-18T17:10:56;5.07;;;2.10;;
61962;SDS011;47927;42.646;23.096;2022-10-18T17:13:24;4.20;;;1.88;;
61962;SDS011;47927;42.646;23.096;2022-10-18T17:15:50;4.50;;;1.80;;
61962;SDS011;47927;42.646;23.096;2022-10-18T17:18:18;6.82;;;1.83;;
61962;SDS011;47927;42.646;23.096;2022-10-18T17:20:52;3.90;;;1.67;;
61962;SDS011;47927;42.646;23.096;2022-10-18T17:23:17;7.70;;;1.67;;
61962;SDS011;47927;42.646;23.096;2022-10-18T17:25:43;3.15;;;1.58;;
61962;SDS011;47927;42.646;23.096;2022-10-18T17:28:14;6.63;;;1.90;;
61962;SDS011;47927;42.646;23.096;2022-10-18T17:30:42;2.85;;;1.52;;
61962;SDS011;47927;42.646;23.096;2022-10-18T17:33:09;2.40;;;1.30;;
61962;SDS011;47927;42.646;23.096;2022-10-18T17:35:35;4.90;;;1.85;;
61962;SDS011;47927;42.646;23.096;2022-10-18T17:38:02;6.53;;;1.63;;
61962;SDS011;47927;42.646;23.096;2022-10-18T17:40:28;3.88;;;1.73;;